Saxaren — SKHW — position and weather

sailwx.info

Track history (hours):
 
Tides and Currents Weather Stations Pressure Air Temp Water Temp Dewpoint Dewpoint Depression Visibility Wind Speed Wind Dir Waves Ship Positions

Saxaren

Last reported at 2015-Jul-31 16:08 UTC. Time now 2015-Jul-31 21:24 UTC.
Position N 59°19' E 018°06'.

Length 38 m; draft 1.8 m.

Type: Passenger vessel. MMSI: 265512110.

Date/timePositionNaut miles runAvg speedWind from/ knotsBaromVisibWave heightAir tempDewpointWater temp
2015-Jul-31 16:08N 59°19' E 018°06'1 2.1
2015-Jul-31 15:34N 59°20' E 018°05'0 0.0
2015-Jul-31 14:33N 59°20' E 018°05'0 0.0
2015-Jul-31 13:33N 59°20' E 018°05'3 0.6
2015-Jul-31 08:06N 59°20' E 018°11'3 5.9
2015-Jul-31 07:34N 59°20' E 018°05'0 0.0
2015-Jul-31 06:34N 59°20' E 018°04'0 0.0
2015-Jul-31 05:33N 59°20' E 018°05'0 0.0
2015-Jul-31 04:33N 59°20' E 018°05'0 0.0
2015-Jul-31 03:33N 59°20' E 018°04'0 0.0
2015-Jul-31 02:33N 59°20' E 018°04'0 0.0
2015-Jul-31 01:34N 59°20' E 018°05'0 0.0
2015-Jul-31 00:33N 59°20' E 018°04'0 0.0
2015-Jul-30 23:33N 59°20' E 018°04'0 0.0
2015-Jul-30 22:33N 59°20' E 018°05'0 0.0
2015-Jul-30 21:33N 59°20' E 018°05'0 0.0
2015-Jul-30 20:33N 59°20' E 018°05'0 0.0
2015-Jul-30 19:33N 59°20' E 018°04'0 0.0
2015-Jul-30 18:34N 59°20' E 018°04'0 0.0
2015-Jul-30 17:33N 59°20' E 018°04'4 0.3
2015-Jul-30 07:05N 59°20' E 018°11'4 6.6
2015-Jul-30 06:33N 59°20' E 018°04'0 0.0
2015-Jul-30 05:33N 59°20' E 018°05'0 0.0
2015-Jul-30 04:33N 59°20' E 018°04'0 0.0
2015-Jul-30 03:33N 59°20' E 018°04'0 0.0
2015-Jul-30 02:33N 59°20' E 018°04'0 0.0
2015-Jul-30 01:33N 59°20' E 018°04'0 0.0
2015-Jul-30 00:33N 59°20' E 018°05'0 0.0
2015-Jul-29 23:33N 59°20' E 018°04'0 0.0
2015-Jul-29 22:33N 59°20' E 018°04'0 0.0
2015-Jul-29 21:33N 59°20' E 018°04'0 0.0
2015-Jul-29 20:31N 59°20' E 018°05'0 0.0
2015-Jul-29 19:25N 59°20' E 018°04'0 0.0
2015-Jul-29 18:33N 59°20' E 018°04'0 0.0
2015-Jul-29 17:33N 59°20' E 018°04'0 0.0
2015-Jul-29 06:33N 59°20' E 018°04'0 0.0
2015-Jul-29 05:34N 59°20' E 018°05'0 0.0
2015-Jul-29 04:34N 59°20' E 018°04'0 0.0
2015-Jul-29 03:33N 59°20' E 018°04'0 0.0
2015-Jul-29 02:34N 59°20' E 018°04'0 0.0
2015-Jul-29 01:33N 59°20' E 018°04'0 0.0
2015-Jul-29 00:34N 59°20' E 018°04'0 0.0
2015-Jul-28 23:34N 59°20' E 018°04'0 0.0
2015-Jul-28 22:34N 59°20' E 018°05'0 0.0
2015-Jul-28 21:34N 59°20' E 018°04'0 0.0
2015-Jul-28 20:34N 59°20' E 018°04'0 0.0
2015-Jul-28 19:33N 59°20' E 018°04'0 0.0
2015-Jul-28 18:34N 59°20' E 018°04'0 0.0
2015-Jul-28 17:33N 59°20' E 018°04'3 0.1
2015-Jul-27 07:04N 59°20' E 018°11'3 4.8
2015-Jul-27 06:24N 59°20' E 018°05'1 0.1
2015-Jul-26 15:08N 59°19' E 018°06'1 2.0
2015-Jul-26 14:33N 59°20' E 018°04'7 7.3
2015-Jul-26 13:32N 59°23' E 018°18'5 0.7
2015-Jul-26 07:19N 59°20' E 018°11'3 4.4
2015-Jul-26 06:34N 59°20' E 018°05'0 0.0
2015-Jul-26 05:33N 59°20' E 018°05'0 0.0
2015-Jul-26 04:33N 59°20' E 018°05'0 0.0
2015-Jul-26 03:32N 59°20' E 018°05'0 0.0
2015-Jul-26 02:34N 59°20' E 018°05'0 0.0
2015-Jul-26 01:33N 59°20' E 018°05'0 0.0
2015-Jul-26 00:33N 59°20' E 018°05'0 0.0
2015-Jul-25 23:33N 59°20' E 018°05'0 0.0
2015-Jul-25 22:34N 59°20' E 018°05'0 0.0
2015-Jul-25 21:33N 59°20' E 018°05'0 0.0
2015-Jul-25 20:34N 59°20' E 018°05'0 0.0
2015-Jul-25 19:33N 59°20' E 018°05'1 0.2
2015-Jul-25 11:09N 59°19' E 018°07'1 2.2
2015-Jul-25 10:33N 59°20' E 018°04'0 0.0
2015-Jul-25 09:33N 59°20' E 018°04'1 0.1
2015-Jul-24 16:09N 59°19' E 018°07'1 2.2
2015-Jul-24 15:33N 59°20' E 018°05'0 0.0
2015-Jul-24 14:33N 59°20' E 018°05'0 0.0
2015-Jul-24 06:33N 59°19' E 018°05'0 0.4
2015-Jul-24 05:33N 59°20' E 018°05'0 0.0
2015-Jul-24 04:33N 59°20' E 018°04'0 0.0
2015-Jul-24 03:33N 59°20' E 018°04'0 0.0
2015-Jul-24 02:33N 59°20' E 018°04'0 0.0
2015-Jul-24 01:34N 59°20' E 018°05'0 0.0
2015-Jul-24 00:33N 59°20' E 018°05'0 0.0
2015-Jul-23 23:33N 59°20' E 018°05'0 0.0
2015-Jul-23 22:33N 59°20' E 018°04'0 0.0
2015-Jul-23 21:33N 59°20' E 018°05'0 0.0
2015-Jul-23 20:34N 59°20' E 018°04'0 0.0
2015-Jul-23 19:33N 59°20' E 018°04'0 0.0
2015-Jul-23 18:33N 59°20' E 018°04'0 0.0
2015-Jul-23 17:33N 59°20' E 018°04'0 0.0
2015-Jul-23 06:33N 59°20' E 018°04'0 0.0
2015-Jul-23 05:33N 59°20' E 018°04'0 0.0
2015-Jul-23 04:34N 59°20' E 018°04'0 0.0
2015-Jul-23 03:33N 59°20' E 018°05'0 0.0
2015-Jul-23 02:33N 59°20' E 018°04'0 0.0
2015-Jul-23 01:34N 59°20' E 018°05'0 0.0
2015-Jul-23 00:34N 59°20' E 018°05'0 0.0
2015-Jul-22 23:33N 59°20' E 018°04'0 0.0
2015-Jul-22 22:33N 59°20' E 018°05'0 0.0
2015-Jul-22 21:34N 59°20' E 018°05'0 0.0
2015-Jul-22 20:33N 59°20' E 018°05'0 0.0
2015-Jul-22 19:33N 59°20' E 018°05'0 0.0
2015-Jul-22 18:33N 59°20' E 018°04'0 0.0
2015-Jul-22 17:33N 59°20' E 018°04'0 0.0
2015-Jul-22 06:34N 59°20' E 018°04'0 0.0
2015-Jul-22 05:34N 59°20' E 018°04'0 0.0
2015-Jul-22 04:34N 59°20' E 018°04'0 0.0
2015-Jul-22 03:33N 59°20' E 018°04'0 0.0
2015-Jul-22 02:33N 59°20' E 018°05'0 0.0
2015-Jul-22 01:33N 59°20' E 018°04'0 0.0
2015-Jul-22 00:33N 59°20' E 018°05'0 0.0
2015-Jul-21 23:34N 59°20' E 018°05'0 0.0
2015-Jul-21 22:33N 59°20' E 018°05'0 0.0
2015-Jul-21 21:33N 59°20' E 018°04'0 0.0
2015-Jul-21 20:33N 59°20' E 018°05'0 0.0
2015-Jul-21 19:33N 59°20' E 018°04'0 0.0
2015-Jul-21 18:34N 59°20' E 018°04'0 0.0
2015-Jul-21 17:34N 59°20' E 018°04'  
Track history (hours):
 
Tides and Currents Weather Stations Pressure Air Temp Water Temp Dewpoint Dewpoint Depression Visibility Wind Speed Wind Dir Waves Ship Positions

Saxaren

Last reported at 2015-Jul-31 16:08 UTC. Time now 2015-Jul-31 21:24 UTC.
Position N 59°19' E 018°06'.

Length 38 m; draft 1.8 m.

Type: Passenger vessel. MMSI: 265512110.

Date/timePositionNaut miles runAvg speedWind from/ knotsBaromVisibWave heightAir tempDewpointWater temp
2015-Jul-31 16:08N 59°19' E 018°06'1 2.1
2015-Jul-31 15:34N 59°20' E 018°05'0 0.0
2015-Jul-31 14:33N 59°20' E 018°05'0 0.0
2015-Jul-31 13:33N 59°20' E 018°05'3 0.6
2015-Jul-31 08:06N 59°20' E 018°11'3 5.9
2015-Jul-31 07:34N 59°20' E 018°05'0 0.0
2015-Jul-31 06:34N 59°20' E 018°04'0 0.0
2015-Jul-31 05:33N 59°20' E 018°05'0 0.0
2015-Jul-31 04:33N 59°20' E 018°05'0 0.0
2015-Jul-31 03:33N 59°20' E 018°04'0 0.0
2015-Jul-31 02:33N 59°20' E 018°04'0 0.0
2015-Jul-31 01:34N 59°20' E 018°05'0 0.0
2015-Jul-31 00:33N 59°20' E 018°04'0 0.0
2015-Jul-30 23:33N 59°20' E 018°04'0 0.0
2015-Jul-30 22:33N 59°20' E 018°05'0 0.0
2015-Jul-30 21:33N 59°20' E 018°05'0 0.0
2015-Jul-30 20:33N 59°20' E 018°05'0 0.0
2015-Jul-30 19:33N 59°20' E 018°04'0 0.0
2015-Jul-30 18:34N 59°20' E 018°04'0 0.0
2015-Jul-30 17:33N 59°20' E 018°04'4 0.3
2015-Jul-30 07:05N 59°20' E 018°11'4 6.6
2015-Jul-30 06:33N 59°20' E 018°04'0 0.0
2015-Jul-30 05:33N 59°20' E 018°05'0 0.0
2015-Jul-30 04:33N 59°20' E 018°04'0 0.0
2015-Jul-30 03:33N 59°20' E 018°04'0 0.0
2015-Jul-30 02:33N 59°20' E 018°04'0 0.0
2015-Jul-30 01:33N 59°20' E 018°04'0 0.0
2015-Jul-30 00:33N 59°20' E 018°05'0 0.0
2015-Jul-29 23:33N 59°20' E 018°04'0 0.0
2015-Jul-29 22:33N 59°20' E 018°04'0 0.0
2015-Jul-29 21:33N 59°20' E 018°04'0 0.0
2015-Jul-29 20:31N 59°20' E 018°05'0 0.0
2015-Jul-29 19:25N 59°20' E 018°04'0 0.0
2015-Jul-29 18:33N 59°20' E 018°04'0 0.0
2015-Jul-29 17:33N 59°20' E 018°04'0 0.0
2015-Jul-29 06:33N 59°20' E 018°04'0 0.0
2015-Jul-29 05:34N 59°20' E 018°05'0 0.0
2015-Jul-29 04:34N 59°20' E 018°04'0 0.0
2015-Jul-29 03:33N 59°20' E 018°04'0 0.0
2015-Jul-29 02:34N 59°20' E 018°04'0 0.0
2015-Jul-29 01:33N 59°20' E 018°04'0 0.0
2015-Jul-29 00:34N 59°20' E 018°04'0 0.0
2015-Jul-28 23:34N 59°20' E 018°04'0 0.0
2015-Jul-28 22:34N 59°20' E 018°05'0 0.0
2015-Jul-28 21:34N 59°20' E 018°04'0 0.0
2015-Jul-28 20:34N 59°20' E 018°04'0 0.0
2015-Jul-28 19:33N 59°20' E 018°04'0 0.0
2015-Jul-28 18:34N 59°20' E 018°04'0 0.0
2015-Jul-28 17:33N 59°20' E 018°04'3 0.1
2015-Jul-27 07:04N 59°20' E 018°11'3 4.8
2015-Jul-27 06:24N 59°20' E 018°05'1 0.1
2015-Jul-26 15:08N 59°19' E 018°06'1 2.0
2015-Jul-26 14:33N 59°20' E 018°04'7 7.3
2015-Jul-26 13:32N 59°23' E 018°18'5 0.7
2015-Jul-26 07:19N 59°20' E 018°11'3 4.4
2015-Jul-26 06:34N 59°20' E 018°05'0 0.0
2015-Jul-26 05:33N 59°20' E 018°05'0 0.0
2015-Jul-26 04:33N 59°20' E 018°05'0 0.0
2015-Jul-26 03:32N 59°20' E 018°05'0 0.0
2015-Jul-26 02:34N 59°20' E 018°05'0 0.0
2015-Jul-26 01:33N 59°20' E 018°05'0 0.0
2015-Jul-26 00:33N 59°20' E 018°05'0 0.0
2015-Jul-25 23:33N 59°20' E 018°05'0 0.0
2015-Jul-25 22:34N 59°20' E 018°05'0 0.0
2015-Jul-25 21:33N 59°20' E 018°05'0 0.0
2015-Jul-25 20:34N 59°20' E 018°05'0 0.0
2015-Jul-25 19:33N 59°20' E 018°05'1 0.2
2015-Jul-25 11:09N 59°19' E 018°07'1 2.2
2015-Jul-25 10:33N 59°20' E 018°04'0 0.0
2015-Jul-25 09:33N 59°20' E 018°04'1 0.1
2015-Jul-24 16:09N 59°19' E 018°07'1 2.2
2015-Jul-24 15:33N 59°20' E 018°05'0 0.0
2015-Jul-24 14:33N 59°20' E 018°05'0 0.0
2015-Jul-24 06:33N 59°19' E 018°05'0 0.4
2015-Jul-24 05:33N 59°20' E 018°05'0 0.0
2015-Jul-24 04:33N 59°20' E 018°04'0 0.0
2015-Jul-24 03:33N 59°20' E 018°04'0 0.0
2015-Jul-24 02:33N 59°20' E 018°04'0 0.0
2015-Jul-24 01:34N 59°20' E 018°05'0 0.0
2015-Jul-24 00:33N 59°20' E 018°05'0 0.0
2015-Jul-23 23:33N 59°20' E 018°05'0 0.0
2015-Jul-23 22:33N 59°20' E 018°04'0 0.0
2015-Jul-23 21:33N 59°20' E 018°05'0 0.0
2015-Jul-23 20:34N 59°20' E 018°04'0 0.0
2015-Jul-23 19:33N 59°20' E 018°04'0 0.0
2015-Jul-23 18:33N 59°20' E 018°04'0 0.0
2015-Jul-23 17:33N 59°20' E 018°04'0 0.0
2015-Jul-23 06:33N 59°20' E 018°04'0 0.0
2015-Jul-23 05:33N 59°20' E 018°04'0 0.0
2015-Jul-23 04:34N 59°20' E 018°04'0 0.0
2015-Jul-23 03:33N 59°20' E 018°05'0 0.0
2015-Jul-23 02:33N 59°20' E 018°04'0 0.0
2015-Jul-23 01:34N 59°20' E 018°05'0 0.0
2015-Jul-23 00:34N 59°20' E 018°05'0 0.0
2015-Jul-22 23:33N 59°20' E 018°04'0 0.0
2015-Jul-22 22:33N 59°20' E 018°05'0 0.0
2015-Jul-22 21:34N 59°20' E 018°05'0 0.0
2015-Jul-22 20:33N 59°20' E 018°05'0 0.0
2015-Jul-22 19:33N 59°20' E 018°05'0 0.0
2015-Jul-22 18:33N 59°20' E 018°04'0 0.0
2015-Jul-22 17:33N 59°20' E 018°04'0 0.0
2015-Jul-22 06:34N 59°20' E 018°04'0 0.0
2015-Jul-22 05:34N 59°20' E 018°04'0 0.0
2015-Jul-22 04:34N 59°20' E 018°04'0 0.0
2015-Jul-22 03:33N 59°20' E 018°04'0 0.0
2015-Jul-22 02:33N 59°20' E 018°05'0 0.0
2015-Jul-22 01:33N 59°20' E 018°04'0 0.0
2015-Jul-22 00:33N 59°20' E 018°05'0 0.0
2015-Jul-21 23:34N 59°20' E 018°05'0 0.0
2015-Jul-21 22:33N 59°20' E 018°05'0 0.0
2015-Jul-21 21:33N 59°20' E 018°04'0 0.0
2015-Jul-21 20:33N 59°20' E 018°05'0 0.0
2015-Jul-21 19:33N 59°20' E 018°04'0 0.0
2015-Jul-21 18:34N 59°20' E 018°04'0 0.0
2015-Jul-21 17:34N 59°20' E 018°04'  

Dump ship's entire track history